sensor_id;sensor_type;location;lat;lon;timestamp;P1;durP1;ratioP1;P2;durP2;ratioP2
52035;SDS011;38046;49.448;32.074;2023-01-29T00:01:29;13.95;;;8.80;;
52035;SDS011;38046;49.448;32.074;2023-01-29T00:03:55;12.38;;;8.15;;
52035;SDS011;38046;49.448;32.074;2023-01-29T00:06:21;10.98;;;8.15;;
52035;SDS011;38046;49.448;32.074;2023-01-29T00:08:47;13.52;;;8.60;;
52035;SDS011;38046;49.448;32.074;2023-01-29T00:11:13;14.65;;;8.98;;
52035;SDS011;38046;49.448;32.074;2023-01-29T00:13:40;12.68;;;9.43;;
52035;SDS011;38046;49.448;32.074;2023-01-29T00:16:06;12.15;;;8.55;;
52035;SDS011;38046;49.448;32.074;2023-01-29T00:18:32;13.70;;;8.57;;
52035;SDS011;38046;49.448;32.074;2023-01-29T00:21:03;12.18;;;8.50;;
52035;SDS011;38046;49.448;32.074;2023-01-29T00:23:32;11.48;;;8.35;;
52035;SDS011;38046;49.448;32.074;2023-01-29T00:26:00;12.10;;;8.90;;
52035;SDS011;38046;49.448;32.074;2023-01-29T00:28:26;12.77;;;9.02;;
52035;SDS011;38046;49.448;32.074;2023-01-29T00:30:52;14.75;;;9.15;;
52035;SDS011;38046;49.448;32.074;2023-01-29T00:33:17;12.95;;;8.90;;
52035;SDS011;38046;49.448;32.074;2023-01-29T00:35:43;12.30;;;8.60;;
52035;SDS011;38046;49.448;32.074;2023-01-29T00:38:09;13.55;;;9.70;;
52035;SDS011;38046;49.448;32.074;2023-01-29T00:40:38;16.13;;;9.88;;
52035;SDS011;38046;49.448;32.074;2023-01-29T00:43:23;14.75;;;9.93;;
52035;SDS011;38046;49.448;32.074;2023-01-29T00:46:08;12.40;;;8.40;;
52035;SDS011;38046;49.448;32.074;2023-01-29T00:48:34;13.45;;;9.30;;
52035;SDS011;38046;49.448;32.074;2023-01-29T00:51:00;10.75;;;8.18;;
52035;SDS011;38046;49.448;32.074;2023-01-29T00:53:27;15.05;;;10.15;;
52035;SDS011;38046;49.448;32.074;2023-01-29T00:55:53;11.27;;;8.40;;
52035;SDS011;38046;49.448;32.074;2023-01-29T00:58:19;11.73;;;8.13;;
52035;SDS011;38046;49.448;32.074;2023-01-29T01:00:49;13.98;;;9.55;;
52035;SDS011;38046;49.448;32.074;2023-01-29T01:03:15;14.75;;;9.52;;
52035;SDS011;38046;49.448;32.074;2023-01-29T01:05:41;12.93;;;9.45;;
52035;SDS011;38046;49.448;32.074;2023-01-29T01:08:07;13.57;;;9.90;;
52035;SDS011;38046;49.448;32.074;2023-01-29T01:10:59;12.82;;;8.73;;
52035;SDS011;38046;49.448;32.074;2023-01-29T01:13:28;13.80;;;9.15;;
52035;SDS011;38046;49.448;32.074;2023-01-29T01:15:55;13.65;;;9.68;;
52035;SDS011;38046;49.448;32.074;2023-01-29T01:18:21;13.70;;;9.85;;
52035;SDS011;38046;49.448;32.074;2023-01-29T01:20:47;16.80;;;9.13;;
52035;SDS011;38046;49.448;32.074;2023-01-29T01:23:16;15.55;;;9.90;;
52035;SDS011;38046;49.448;32.074;2023-01-29T01:25:45;12.30;;;8.23;;
52035;SDS011;38046;49.448;32.074;2023-01-29T01:28:10;14.27;;;9.05;;
52035;SDS011;38046;49.448;32.074;2023-01-29T01:30:36;13.60;;;8.90;;
52035;SDS011;38046;49.448;32.074;2023-01-29T01:33:02;12.82;;;8.50;;
52035;SDS011;38046;49.448;32.074;2023-01-29T01:35:27;12.38;;;9.52;;
52035;SDS011;38046;49.448;32.074;2023-01-29T01:37:53;14.20;;;9.57;;
52035;SDS011;38046;49.448;32.074;2023-01-29T01:40:20;12.65;;;8.95;;
52035;SDS011;38046;49.448;32.074;2023-01-29T01:42:48;14.43;;;9.60;;
52035;SDS011;38046;49.448;32.074;2023-01-29T01:47:48;14.25;;;10.27;;
52035;SDS011;38046;49.448;32.074;2023-01-29T01:53:06;14.45;;;9.30;;
52035;SDS011;38046;49.448;32.074;2023-01-29T01:55:42;13.73;;;9.38;;
52035;SDS011;38046;49.448;32.074;2023-01-29T01:58:14;11.95;;;8.70;;
52035;SDS011;38046;49.448;32.074;2023-01-29T02:00:46;13.15;;;9.25;;
52035;SDS011;38046;49.448;32.074;2023-01-29T02:03:12;13.13;;;8.70;;
52035;SDS011;38046;49.448;32.074;2023-01-29T02:05:56;13.80;;;9.65;;
52035;SDS011;38046;49.448;32.074;2023-01-29T02:11:37;14.98;;;9.48;;
52035;SDS011;38046;49.448;32.074;2023-01-29T02:14:03;11.80;;;8.55;;
52035;SDS011;38046;49.448;32.074;2023-01-29T02:16:29;15.20;;;10.00;;
52035;SDS011;38046;49.448;32.074;2023-01-29T02:18:55;14.35;;;9.48;;
52035;SDS011;38046;49.448;32.074;2023-01-29T02:35:14;10.95;;;8.90;;
52035;SDS011;38046;49.448;32.074;2023-01-29T02:40:54;9.95;;;8.13;;
52035;SDS011;38046;49.448;32.074;2023-01-29T02:43:38;12.05;;;7.80;;
52035;SDS011;38046;49.448;32.074;2023-01-29T02:46:15;12.35;;;8.48;;
52035;SDS011;38046;49.448;32.074;2023-01-29T02:56:53;10.98;;;7.70;;
52035;SDS011;38046;49.448;32.074;2023-01-29T02:59:27;11.40;;;7.53;;
52035;SDS011;38046;49.448;32.074;2023-01-29T03:02:02;14.32;;;9.02;;
52035;SDS011;38046;49.448;32.074;2023-01-29T03:07:02;11.88;;;8.18;;
52035;SDS011;38046;49.448;32.074;2023-01-29T03:09:38;11.30;;;8.32;;
52035;SDS011;38046;49.448;32.074;2023-01-29T03:12:12;9.38;;;7.20;;
52035;SDS011;38046;49.448;32.074;2023-01-29T03:14:57;10.77;;;8.20;;
52035;SDS011;38046;49.448;32.074;2023-01-29T03:17:40;12.00;;;7.55;;
52035;SDS011;38046;49.448;32.074;2023-01-29T03:20:16;10.85;;;8.23;;
52035;SDS011;38046;49.448;32.074;2023-01-29T03:22:48;9.98;;;7.57;;
52035;SDS011;38046;49.448;32.074;2023-01-29T03:25:23;9.73;;;7.63;;
52035;SDS011;38046;49.448;32.074;2023-01-29T03:28:10;12.30;;;8.52;;
52035;SDS011;38046;49.448;32.074;2023-01-29T03:30:59;11.93;;;8.27;;
52035;SDS011;38046;49.448;32.074;2023-01-29T03:36:35;11.35;;;7.75;;
52035;SDS011;38046;49.448;32.074;2023-01-29T03:39:09;11.20;;;7.72;;
52035;SDS011;38046;49.448;32.074;2023-01-29T03:41:41;10.23;;;7.75;;
52035;SDS011;38046;49.448;32.074;2023-01-29T03:45:20;8.80;;;7.22;;
52035;SDS011;38046;49.448;32.074;2023-01-29T03:50:37;10.77;;;7.43;;
52035;SDS011;38046;49.448;32.074;2023-01-29T03:53:21;9.63;;;7.53;;
52035;SDS011;38046;49.448;32.074;2023-01-29T03:58:39;8.63;;;7.25;;
52035;SDS011;38046;49.448;32.074;2023-01-29T04:01:24;10.97;;;7.87;;
52035;SDS011;38046;49.448;32.074;2023-01-29T04:03:56;11.23;;;7.95;;
52035;SDS011;38046;49.448;32.074;2023-01-29T04:06:42;9.65;;;7.07;;
52035;SDS011;38046;49.448;32.074;2023-01-29T04:09:12;10.15;;;7.20;;
52035;SDS011;38046;49.448;32.074;2023-01-29T04:11:48;10.38;;;7.95;;
52035;SDS011;38046;49.448;32.074;2023-01-29T04:14:35;10.05;;;7.05;;
52035;SDS011;38046;49.448;32.074;2023-01-29T04:17:10;10.90;;;7.60;;
52035;SDS011;38046;49.448;32.074;2023-01-29T04:19:40;10.27;;;7.30;;
52035;SDS011;38046;49.448;32.074;2023-01-29T04:22:08;10.55;;;7.80;;
52035;SDS011;38046;49.448;32.074;2023-01-29T04:24:38;10.48;;;7.72;;
52035;SDS011;38046;49.448;32.074;2023-01-29T04:32:52;10.13;;;7.35;;
52035;SDS011;38046;49.448;32.074;2023-01-29T04:43:33;9.50;;;6.93;;
52035;SDS011;38046;49.448;32.074;2023-01-29T04:46:14;13.60;;;7.60;;
52035;SDS011;38046;49.448;32.074;2023-01-29T04:51:57;8.90;;;6.43;;
52035;SDS011;38046;49.448;32.074;2023-01-29T04:59:47;10.93;;;7.53;;
52035;SDS011;38046;49.448;32.074;2023-01-29T05:02:20;9.40;;;6.75;;
52035;SDS011;38046;49.448;32.074;2023-01-29T05:04:48;9.50;;;7.25;;
52035;SDS011;38046;49.448;32.074;2023-01-29T05:07:14;9.48;;;7.40;;
52035;SDS011;38046;49.448;32.074;2023-01-29T05:09:43;9.43;;;6.38;;
52035;SDS011;38046;49.448;32.074;2023-01-29T05:12:11;10.32;;;7.07;;
52035;SDS011;38046;49.448;32.074;2023-01-29T05:14:40;8.48;;;6.45;;
52035;SDS011;38046;49.448;32.074;2023-01-29T05:17:11;10.07;;;7.38;;
52035;SDS011;38046;49.448;32.074;2023-01-29T05:19:39;10.10;;;7.70;;
52035;SDS011;38046;49.448;32.074;2023-01-29T05:22:05;10.07;;;7.10;;
52035;SDS011;38046;49.448;32.074;2023-01-29T05:24:35;10.15;;;7.15;;
52035;SDS011;38046;49.448;32.074;2023-01-29T05:27:01;10.70;;;8.20;;
52035;SDS011;38046;49.448;32.074;2023-01-29T05:29:46;10.85;;;7.40;;
52035;SDS011;38046;49.448;32.074;2023-01-29T05:32:12;10.05;;;7.18;;
52035;SDS011;38046;49.448;32.074;2023-01-29T05:34:39;10.45;;;7.90;;
52035;SDS011;38046;49.448;32.074;2023-01-29T05:37:05;9.48;;;7.07;;
52035;SDS011;38046;49.448;32.074;2023-01-29T05:39:31;9.80;;;7.13;;
52035;SDS011;38046;49.448;32.074;2023-01-29T05:41:57;10.15;;;6.82;;
52035;SDS011;38046;49.448;32.074;2023-01-29T05:44:23;9.80;;;6.95;;
52035;SDS011;38046;49.448;32.074;2023-01-29T05:46:49;9.68;;;6.85;;
52035;SDS011;38046;49.448;32.074;2023-01-29T05:49:15;9.68;;;7.40;;
52035;SDS011;38046;49.448;32.074;2023-01-29T05:51:42;10.15;;;7.00;;
52035;SDS011;38046;49.448;32.074;2023-01-29T05:54:10;10.43;;;6.90;;
52035;SDS011;38046;49.448;32.074;2023-01-29T05:56:36;9.95;;;7.20;;
52035;SDS011;38046;49.448;32.074;2023-01-29T05:59:03;9.40;;;7.32;;
52035;SDS011;38046;49.448;32.074;2023-01-29T06:01:29;9.43;;;7.00;;
52035;SDS011;38046;49.448;32.074;2023-01-29T06:03:54;9.45;;;7.13;;
52035;SDS011;38046;49.448;32.074;2023-01-29T06:06:20;9.38;;;7.25;;
52035;SDS011;38046;49.448;32.074;2023-01-29T06:08:46;11.43;;;7.95;;
52035;SDS011;38046;49.448;32.074;2023-01-29T06:11:12;9.80;;;7.50;;
52035;SDS011;38046;49.448;32.074;2023-01-29T06:13:38;12.02;;;7.50;;
52035;SDS011;38046;49.448;32.074;2023-01-29T06:16:05;10.60;;;7.45;;
52035;SDS011;38046;49.448;32.074;2023-01-29T06:18:31;10.25;;;7.60;;
52035;SDS011;38046;49.448;32.074;2023-01-29T06:21:01;10.45;;;7.30;;
52035;SDS011;38046;49.448;32.074;2023-01-29T06:23:28;9.93;;;7.68;;
52035;SDS011;38046;49.448;32.074;2023-01-29T06:25:58;10.05;;;7.40;;
52035;SDS011;38046;49.448;32.074;2023-01-29T06:28:28;10.15;;;7.50;;
52035;SDS011;38046;49.448;32.074;2023-01-29T06:30:57;9.30;;;7.72;;
52035;SDS011;38046;49.448;32.074;2023-01-29T06:33:24;10.27;;;7.78;;
52035;SDS011;38046;49.448;32.074;2023-01-29T06:36:01;11.32;;;7.40;;
52035;SDS011;38046;49.448;32.074;2023-01-29T06:38:28;10.10;;;7.25;;
52035;SDS011;38046;49.448;32.074;2023-01-29T06:40:54;9.98;;;7.43;;
52035;SDS011;38046;49.448;32.074;2023-01-29T06:43:20;10.40;;;6.90;;
52035;SDS011;38046;49.448;32.074;2023-01-29T06:45:53;12.35;;;7.50;;
52035;SDS011;38046;49.448;32.074;2023-01-29T06:48:22;11.93;;;7.60;;
52035;SDS011;38046;49.448;32.074;2023-01-29T06:50:48;12.80;;;8.18;;
52035;SDS011;38046;49.448;32.074;2023-01-29T06:53:16;9.25;;;6.88;;
52035;SDS011;38046;49.448;32.074;2023-01-29T06:55:42;9.45;;;7.20;;
52035;SDS011;38046;49.448;32.074;2023-01-29T06:58:14;10.50;;;7.55;;
52035;SDS011;38046;49.448;32.074;2023-01-29T07:00:40;12.15;;;8.45;;
52035;SDS011;38046;49.448;32.074;2023-01-29T07:03:07;9.90;;;6.78;;
52035;SDS011;38046;49.448;32.074;2023-01-29T07:05:33;10.35;;;7.25;;
52035;SDS011;38046;49.448;32.074;2023-01-29T07:07:59;9.50;;;7.05;;
52035;SDS011;38046;49.448;32.074;2023-01-29T07:10:25;16.08;;;11.55;;
52035;SDS011;38046;49.448;32.074;2023-01-29T07:12:50;10.35;;;8.05;;
52035;SDS011;38046;49.448;32.074;2023-01-29T07:15:16;9.95;;;7.65;;
52035;SDS011;38046;49.448;32.074;2023-01-29T07:17:54;8.95;;;6.88;;
52035;SDS011;38046;49.448;32.074;2023-01-29T07:20:25;10.55;;;7.53;;
52035;SDS011;38046;49.448;32.074;2023-01-29T07:22:55;9.77;;;7.32;;
52035;SDS011;38046;49.448;32.074;2023-01-29T07:25:22;8.32;;;6.35;;
52035;SDS011;38046;49.448;32.074;2023-01-29T07:27:48;8.35;;;6.68;;
52035;SDS011;38046;49.448;32.074;2023-01-29T07:30:14;10.15;;;6.95;;
52035;SDS011;38046;49.448;32.074;2023-01-29T07:32:40;9.50;;;7.25;;
52035;SDS011;38046;49.448;32.074;2023-01-29T07:35:06;8.30;;;7.07;;
52035;SDS011;38046;49.448;32.074;2023-01-29T07:37:33;10.52;;;7.63;;
52035;SDS011;38046;49.448;32.074;2023-01-29T07:39:58;9.38;;;6.53;;
52035;SDS011;38046;49.448;32.074;2023-01-29T07:42:24;9.80;;;7.00;;
52035;SDS011;38046;49.448;32.074;2023-01-29T07:44:50;9.18;;;7.10;;
52035;SDS011;38046;49.448;32.074;2023-01-29T07:47:15;8.20;;;6.68;;
52035;SDS011;38046;49.448;32.074;2023-01-29T07:49:41;10.13;;;7.28;;
52035;SDS011;38046;49.448;32.074;2023-01-29T07:52:07;10.30;;;7.45;;
52035;SDS011;38046;49.448;32.074;2023-01-29T07:54:32;9.73;;;7.05;;
52035;SDS011;38046;49.448;32.074;2023-01-29T07:56:58;8.48;;;6.57;;
52035;SDS011;38046;49.448;32.074;2023-01-29T07:59:24;10.63;;;7.53;;
52035;SDS011;38046;49.448;32.074;2023-01-29T08:01:49;10.60;;;7.35;;
52035;SDS011;38046;49.448;32.074;2023-01-29T08:04:15;9.45;;;6.90;;
52035;SDS011;38046;49.448;32.074;2023-01-29T08:06:42;8.82;;;6.68;;
52035;SDS011;38046;49.448;32.074;2023-01-29T08:09:08;9.10;;;7.03;;
52035;SDS011;38046;49.448;32.074;2023-01-29T08:11:34;9.52;;;6.45;;
52035;SDS011;38046;49.448;32.074;2023-01-29T08:14:00;8.30;;;6.55;;
52035;SDS011;38046;49.448;32.074;2023-01-29T08:16:26;9.60;;;6.68;;
52035;SDS011;38046;49.448;32.074;2023-01-29T08:18:51;9.25;;;6.50;;
52035;SDS011;38046;49.448;32.074;2023-01-29T08:21:17;8.32;;;6.40;;
52035;SDS011;38046;49.448;32.074;2023-01-29T08:23:45;10.02;;;6.47;;
52035;SDS011;38046;49.448;32.074;2023-01-29T08:26:11;8.27;;;6.85;;
52035;SDS011;38046;49.448;32.074;2023-01-29T08:28:37;8.82;;;6.50;;
52035;SDS011;38046;49.448;32.074;2023-01-29T08:31:03;9.00;;;7.22;;
52035;SDS011;38046;49.448;32.074;2023-01-29T08:33:29;8.68;;;6.20;;
52035;SDS011;38046;49.448;32.074;2023-01-29T08:35:54;8.35;;;6.53;;
52035;SDS011;38046;49.448;32.074;2023-01-29T08:38:21;9.10;;;6.50;;
52035;SDS011;38046;49.448;32.074;2023-01-29T08:40:46;9.38;;;6.40;;
52035;SDS011;38046;49.448;32.074;2023-01-29T08:43:12;7.90;;;6.53;;
52035;SDS011;38046;49.448;32.074;2023-01-29T08:45:42;8.07;;;6.50;;
52035;SDS011;38046;49.448;32.074;2023-01-29T08:48:08;10.15;;;6.80;;
52035;SDS011;38046;49.448;32.074;2023-01-29T08:50:34;8.88;;;6.50;;
52035;SDS011;38046;49.448;32.074;2023-01-29T08:53:05;8.40;;;6.95;;
52035;SDS011;38046;49.448;32.074;2023-01-29T08:55:33;7.95;;;6.57;;
52035;SDS011;38046;49.448;32.074;2023-01-29T08:58:02;7.68;;;5.90;;
52035;SDS011;38046;49.448;32.074;2023-01-29T09:00:29;8.20;;;6.20;;
52035;SDS011;38046;49.448;32.074;2023-01-29T09:02:56;9.55;;;6.55;;
52035;SDS011;38046;49.448;32.074;2023-01-29T09:05:23;9.60;;;7.05;;
52035;SDS011;38046;49.448;32.074;2023-01-29T09:07:49;8.35;;;6.30;;
52035;SDS011;38046;49.448;32.074;2023-01-29T09:10:15;9.32;;;6.63;;
52035;SDS011;38046;49.448;32.074;2023-01-29T09:12:41;8.77;;;6.78;;
52035;SDS011;38046;49.448;32.074;2023-01-29T09:15:07;8.57;;;6.50;;
52035;SDS011;38046;49.448;32.074;2023-01-29T09:17:33;8.75;;;6.72;;
52035;SDS011;38046;49.448;32.074;2023-01-29T09:19:58;8.60;;;6.15;;
52035;SDS011;38046;49.448;32.074;2023-01-29T09:22:24;8.75;;;7.07;;
52035;SDS011;38046;49.448;32.074;2023-01-29T09:24:50;8.05;;;6.78;;
52035;SDS011;38046;49.448;32.074;2023-01-29T09:27:15;8.38;;;6.63;;
52035;SDS011;38046;49.448;32.074;2023-01-29T09:29:41;8.73;;;6.40;;
52035;SDS011;38046;49.448;32.074;2023-01-29T09:32:07;8.93;;;6.75;;
52035;SDS011;38046;49.448;32.074;2023-01-29T09:34:33;8.98;;;6.47;;
52035;SDS011;38046;49.448;32.074;2023-01-29T09:36:59;9.05;;;6.90;;
52035;SDS011;38046;49.448;32.074;2023-01-29T09:39:24;9.23;;;6.57;;
52035;SDS011;38046;49.448;32.074;2023-01-29T09:44:55;8.88;;;6.65;;
52035;SDS011;38046;49.448;32.074;2023-01-29T09:47:36;8.98;;;6.50;;
52035;SDS011;38046;49.448;32.074;2023-01-29T09:50:06;7.72;;;5.80;;
52035;SDS011;38046;49.448;32.074;2023-01-29T09:52:42;8.15;;;5.85;;
52035;SDS011;38046;49.448;32.074;2023-01-29T09:57:48;8.77;;;6.25;;
52035;SDS011;38046;49.448;32.074;2023-01-29T10:00:24;9.55;;;6.55;;
52035;SDS011;38046;49.448;32.074;2023-01-29T10:05:39;8.00;;;6.25;;
52035;SDS011;38046;49.448;32.074;2023-01-29T10:14:01;8.38;;;6.05;;
52035;SDS011;38046;49.448;32.074;2023-01-29T10:24:50;8.60;;;6.07;;
52035;SDS011;38046;49.448;32.074;2023-01-29T10:27:20;9.38;;;5.90;;
52035;SDS011;38046;49.448;32.074;2023-01-29T10:29:51;7.15;;;5.50;;
52035;SDS011;38046;49.448;32.074;2023-01-29T10:32:19;7.80;;;5.63;;
52035;SDS011;38046;49.448;32.074;2023-01-29T10:37:46;7.00;;;5.30;;
52035;SDS011;38046;49.448;32.074;2023-01-29T10:40:20;6.38;;;5.20;;
52035;SDS011;38046;49.448;32.074;2023-01-29T10:43:14;6.95;;;5.10;;
52035;SDS011;38046;49.448;32.074;2023-01-29T10:48:49;7.47;;;5.57;;
52035;SDS011;38046;49.448;32.074;2023-01-29T10:54:28;8.65;;;6.20;;
52035;SDS011;38046;49.448;32.074;2023-01-29T11:02:17;9.23;;;6.22;;
52035;SDS011;38046;49.448;32.074;2023-01-29T11:04:45;9.00;;;6.50;;
52035;SDS011;38046;49.448;32.074;2023-01-29T11:07:11;8.57;;;6.25;;
52035;SDS011;38046;49.448;32.074;2023-01-29T11:09:44;7.93;;;6.30;;
52035;SDS011;38046;49.448;32.074;2023-01-29T11:12:26;9.10;;;6.28;;
52035;SDS011;38046;49.448;32.074;2023-01-29T11:15:00;8.75;;;6.07;;
52035;SDS011;38046;49.448;32.074;2023-01-29T11:17:30;7.75;;;6.32;;
52035;SDS011;38046;49.448;32.074;2023-01-29T11:19:56;8.98;;;6.40;;
52035;SDS011;38046;49.448;32.074;2023-01-29T11:22:22;8.23;;;5.95;;
52035;SDS011;38046;49.448;32.074;2023-01-29T11:25:05;6.47;;;5.30;;
52035;SDS011;38046;49.448;32.074;2023-01-29T11:27:43;7.22;;;5.38;;
52035;SDS011;38046;49.448;32.074;2023-01-29T11:30:33;8.43;;;5.97;;
52035;SDS011;38046;49.448;32.074;2023-01-29T11:35:45;7.57;;;5.63;;
52035;SDS011;38046;49.448;32.074;2023-01-29T11:40:39;7.50;;;5.60;;
52035;SDS011;38046;49.448;32.074;2023-01-29T11:43:12;7.78;;;5.50;;
52035;SDS011;38046;49.448;32.074;2023-01-29T11:45:42;7.75;;;5.30;;
52035;SDS011;38046;49.448;32.074;2023-01-29T11:48:18;8.52;;;6.13;;
52035;SDS011;38046;49.448;32.074;2023-01-29T11:50:58;6.97;;;5.18;;
52035;SDS011;38046;49.448;32.074;2023-01-29T11:53:43;7.32;;;5.95;;
52035;SDS011;38046;49.448;32.074;2023-01-29T11:56:20;6.82;;;5.55;;
52035;SDS011;38046;49.448;32.074;2023-01-29T11:59:23;7.35;;;5.43;;
52035;SDS011;38046;49.448;32.074;2023-01-29T12:01:50;7.28;;;5.50;;
52035;SDS011;38046;49.448;32.074;2023-01-29T12:04:19;7.15;;;5.32;;
52035;SDS011;38046;49.448;32.074;2023-01-29T12:06:49;7.28;;;5.53;;
52035;SDS011;38046;49.448;32.074;2023-01-29T12:09:21;8.38;;;5.20;;
52035;SDS011;38046;49.448;32.074;2023-01-29T12:11:50;6.82;;;5.53;;
52035;SDS011;38046;49.448;32.074;2023-01-29T12:14:26;6.82;;;5.18;;
52035;SDS011;38046;49.448;32.074;2023-01-29T12:17:01;7.10;;;5.32;;
52035;SDS011;38046;49.448;32.074;2023-01-29T12:19:44;6.47;;;5.22;;
52035;SDS011;38046;49.448;32.074;2023-01-29T12:22:16;6.25;;;4.50;;
52035;SDS011;38046;49.448;32.074;2023-01-29T12:24:56;8.38;;;5.75;;
52035;SDS011;38046;49.448;32.074;2023-01-29T12:30:59;7.30;;;5.10;;
52035;SDS011;38046;49.448;32.074;2023-01-29T12:35:43;7.80;;;5.18;;
52035;SDS011;38046;49.448;32.074;2023-01-29T12:38:18;7.22;;;5.30;;
52035;SDS011;38046;49.448;32.074;2023-01-29T12:40:46;8.55;;;5.60;;
52035;SDS011;38046;49.448;32.074;2023-01-29T12:44:05;7.38;;;5.50;;
52035;SDS011;38046;49.448;32.074;2023-01-29T12:46:05;7.38;;;5.50;;
52035;SDS011;38046;49.448;32.074;2023-01-29T12:48:38;6.72;;;5.13;;
52035;SDS011;38046;49.448;32.074;2023-01-29T12:51:12;8.77;;;6.07;;
52035;SDS011;38046;49.448;32.074;2023-01-29T12:53:44;6.43;;;5.05;;
52035;SDS011;38046;49.448;32.074;2023-01-29T12:56:26;6.82;;;5.13;;
52035;SDS011;38046;49.448;32.074;2023-01-29T12:58:59;7.40;;;5.88;;
52035;SDS011;38046;49.448;32.074;2023-01-29T13:01:29;7.18;;;5.75;;
52035;SDS011;38046;49.448;32.074;2023-01-29T13:06:32;6.13;;;4.75;;
52035;SDS011;38046;49.448;32.074;2023-01-29T13:09:14;8.20;;;6.18;;
52035;SDS011;38046;49.448;32.074;2023-01-29T13:12:06;7.50;;;5.25;;
52035;SDS011;38046;49.448;32.074;2023-01-29T13:14:58;7.43;;;5.22;;
52035;SDS011;38046;49.448;32.074;2023-01-29T13:17:30;8.88;;;6.03;;
52035;SDS011;38046;49.448;32.074;2023-01-29T13:20:25;7.68;;;5.38;;
52035;SDS011;38046;49.448;32.074;2023-01-29T13:22:51;7.72;;;5.22;;
52035;SDS011;38046;49.448;32.074;2023-01-29T13:25:20;7.10;;;5.57;;
52035;SDS011;38046;49.448;32.074;2023-01-29T13:27:46;7.47;;;5.68;;
52035;SDS011;38046;49.448;32.074;2023-01-29T13:30:26;9.07;;;6.38;;
52035;SDS011;38046;49.448;32.074;2023-01-29T13:32:58;7.57;;;5.72;;
52035;SDS011;38046;49.448;32.074;2023-01-29T13:35:35;10.07;;;6.80;;
52035;SDS011;38046;49.448;32.074;2023-01-29T13:38:18;8.05;;;6.50;;
52035;SDS011;38046;49.448;32.074;2023-01-29T13:40:49;9.00;;;6.65;;
52035;SDS011;38046;49.448;32.074;2023-01-29T13:43:18;9.20;;;6.63;;
52035;SDS011;38046;49.448;32.074;2023-01-29T13:45:46;11.10;;;7.05;;
52035;SDS011;38046;49.448;32.074;2023-01-29T13:48:27;7.93;;;6.55;;
52035;SDS011;38046;49.448;32.074;2023-01-29T13:50:59;9.57;;;6.80;;
52035;SDS011;38046;49.448;32.074;2023-01-29T13:53:34;9.60;;;6.50;;
52035;SDS011;38046;49.448;32.074;2023-01-29T13:58:52;11.00;;;7.55;;
52035;SDS011;38046;49.448;32.074;2023-01-29T14:01:54;9.00;;;6.63;;
52035;SDS011;38046;49.448;32.074;2023-01-29T14:07:01;8.20;;;6.57;;
52035;SDS011;38046;49.448;32.074;2023-01-29T14:14:49;8.40;;;6.20;;
52035;SDS011;38046;49.448;32.074;2023-01-29T14:17:25;8.38;;;6.32;;
52035;SDS011;38046;49.448;32.074;2023-01-29T14:19:52;8.75;;;6.55;;
52035;SDS011;38046;49.448;32.074;2023-01-29T14:22:24;9.75;;;6.57;;
52035;SDS011;38046;49.448;32.074;2023-01-29T14:24:52;9.35;;;6.35;;
52035;SDS011;38046;49.448;32.074;2023-01-29T14:27:26;8.52;;;6.07;;
52035;SDS011;38046;49.448;32.074;2023-01-29T14:30:05;7.13;;;5.60;;
52035;SDS011;38046;49.448;32.074;2023-01-29T14:32:33;9.20;;;6.88;;
52035;SDS011;38046;49.448;32.074;2023-01-29T14:35:09;10.43;;;7.20;;
52035;SDS011;38046;49.448;32.074;2023-01-29T14:37:44;11.10;;;7.72;;
52035;SDS011;38046;49.448;32.074;2023-01-29T14:40:22;9.40;;;7.40;;
52035;SDS011;38046;49.448;32.074;2023-01-29T14:43:24;11.52;;;8.45;;
52035;SDS011;38046;49.448;32.074;2023-01-29T14:45:45;12.13;;;8.63;;
52035;SDS011;38046;49.448;32.074;2023-01-29T14:51:10;14.23;;;8.52;;
52035;SDS011;38046;49.448;32.074;2023-01-29T14:53:50;12.55;;;9.05;;
52035;SDS011;38046;49.448;32.074;2023-01-29T14:56:44;11.77;;;9.13;;
52035;SDS011;38046;49.448;32.074;2023-01-29T14:59:19;13.15;;;9.35;;
52035;SDS011;38046;49.448;32.074;2023-01-29T15:01:58;12.27;;;8.60;;
52035;SDS011;38046;49.448;32.074;2023-01-29T15:04:32;12.02;;;9.07;;
52035;SDS011;38046;49.448;32.074;2023-01-29T15:07:10;12.35;;;8.98;;
52035;SDS011;38046;49.448;32.074;2023-01-29T15:09:46;13.20;;;9.55;;
52035;SDS011;38046;49.448;32.074;2023-01-29T15:12:32;15.43;;;10.27;;
52035;SDS011;38046;49.448;32.074;2023-01-29T15:15:17;13.52;;;9.70;;
52035;SDS011;38046;49.448;32.074;2023-01-29T15:18:07;15.25;;;10.25;;
52035;SDS011;38046;49.448;32.074;2023-01-29T15:21:12;15.15;;;10.82;;
52035;SDS011;38046;49.448;32.074;2023-01-29T15:23:39;14.38;;;10.13;;
52035;SDS011;38046;49.448;32.074;2023-01-29T15:26:06;15.95;;;10.65;;
52035;SDS011;38046;49.448;32.074;2023-01-29T15:28:38;11.55;;;8.23;;
52035;SDS011;38046;49.448;32.074;2023-01-29T15:31:05;14.23;;;9.82;;
52035;SDS011;38046;49.448;32.074;2023-01-29T15:36:05;15.15;;;10.30;;
52035;SDS011;38046;49.448;32.074;2023-01-29T15:38:31;15.77;;;10.38;;
52035;SDS011;38046;49.448;32.074;2023-01-29T15:41:13;16.25;;;10.45;;
52035;SDS011;38046;49.448;32.074;2023-01-29T15:43:48;13.18;;;9.38;;
52035;SDS011;38046;49.448;32.074;2023-01-29T15:46:33;13.38;;;9.50;;
52035;SDS011;38046;49.448;32.074;2023-01-29T15:49:04;14.87;;;9.80;;
52035;SDS011;38046;49.448;32.074;2023-01-29T15:51:34;12.55;;;9.38;;
52035;SDS011;38046;49.448;32.074;2023-01-29T15:56:32;14.25;;;9.05;;
52035;SDS011;38046;49.448;32.074;2023-01-29T15:59:01;15.00;;;10.55;;
52035;SDS011;38046;49.448;32.074;2023-01-29T16:01:28;15.10;;;10.00;;
52035;SDS011;38046;49.448;32.074;2023-01-29T16:03:54;14.00;;;9.70;;
52035;SDS011;38046;49.448;32.074;2023-01-29T16:06:22;15.10;;;9.43;;
52035;SDS011;38046;49.448;32.074;2023-01-29T16:08:50;13.15;;;9.80;;
52035;SDS011;38046;49.448;32.074;2023-01-29T16:11:18;13.90;;;9.50;;
52035;SDS011;38046;49.448;32.074;2023-01-29T16:13:45;15.35;;;10.10;;
52035;SDS011;38046;49.448;32.074;2023-01-29T16:18:39;13.38;;;9.63;;
52035;SDS011;38046;49.448;32.074;2023-01-29T16:21:14;15.60;;;10.25;;
52035;SDS011;38046;49.448;32.074;2023-01-29T16:23:42;14.00;;;9.25;;
52035;SDS011;38046;49.448;32.074;2023-01-29T16:26:14;12.85;;;9.60;;
52035;SDS011;38046;49.448;32.074;2023-01-29T16:28:45;15.27;;;9.43;;
52035;SDS011;38046;49.448;32.074;2023-01-29T16:31:11;14.93;;;9.80;;
52035;SDS011;38046;49.448;32.074;2023-01-29T16:33:44;13.75;;;9.32;;
52035;SDS011;38046;49.448;32.074;2023-01-29T16:36:17;14.75;;;10.05;;
52035;SDS011;38046;49.448;32.074;2023-01-29T16:38:49;15.77;;;10.32;;
52035;SDS011;38046;49.448;32.074;2023-01-29T16:41:30;14.93;;;10.25;;
52035;SDS011;38046;49.448;32.074;2023-01-29T16:46:44;18.05;;;10.60;;
52035;SDS011;38046;49.448;32.074;2023-01-29T16:51:52;15.18;;;10.77;;
52035;SDS011;38046;49.448;32.074;2023-01-29T16:54:20;13.43;;;9.60;;
52035;SDS011;38046;49.448;32.074;2023-01-29T16:56:54;15.00;;;9.30;;
52035;SDS011;38046;49.448;32.074;2023-01-29T16:59:33;14.40;;;9.25;;
52035;SDS011;38046;49.448;32.074;2023-01-29T17:02:01;13.27;;;9.50;;
52035;SDS011;38046;49.448;32.074;2023-01-29T17:04:28;14.20;;;9.93;;
52035;SDS011;38046;49.448;32.074;2023-01-29T17:06:57;13.27;;;9.13;;
52035;SDS011;38046;49.448;32.074;2023-01-29T17:09:26;15.07;;;9.35;;
52035;SDS011;38046;49.448;32.074;2023-01-29T17:11:56;14.05;;;9.27;;
52035;SDS011;38046;49.448;32.074;2023-01-29T17:14:24;12.63;;;8.63;;